Aérodrome :
LOGIN :

S'inscrire | Disclaimer

   EN    FR    IT 

 










Légende :    VFR   VFR Marginal   IFR   IFR Intensif   IFR Très Intensif
Visi : 
Plafond : 
>= 8 km
>= 3000ft
5 à 8 km
1000 à 3000 ft
1500m à 5 km
500 à 1000 ft
800 à 1500m
200 à 500 ft
< 800m
< 200 ft
Symboles :   Orages  Brouillard  Fortes neiges  Fortes précipitations  Vent > 20 kt
SIGMETs :   Divers  Orages  Givrage  Turbulence  Onde Orograph.  Cendres Volcan.







- Altitude de l'aérodrome : 776 ft
- Code IATA : RMS


ETAR - Ramstein Air Base

DERNIER METAR :
  • 181856Z 02005KT 8000 BR CLR 13/13 A3017 RMK AO2A SLP223 T01330133 $

METARs EXPIRÉS :
  • 181756Z 03007KT 8000 BR CLR 14/14 A3016 RMK AO2A SLP220 T01440144 10210 20144 52014 $
  • 181656Z 02004KT 9999 CLR 16/13 A3015 RMK AO2A SLP215 T01580158 $

TAF TAF ETAR
Valide du 18 à 18h jusqu'au 20 à 00h UTC


181802Z 1818/1924 03009KT 9999 BKN020 QNH3014INS
BECMG 1902/1903 04009KT 9999 BKN010 QNH3013INS
BECMG 1909/1910 05009KT 9999 FEW020 QNH3017INS
BECMG 1922/1923 VRB06KT 8000 BR FEW015 QNH3023INS TX21/1915Z TN04/1905Z
Pas de NOTAMs connus pour ce terrain.



MET'MAP, la Météo Aéronautique d'un coup d'oeil ! - Copyright ORBIFLY Décembre 2007 - Disclaimer

ORBIFLY MET'MAP TEAM :

Programmation & Développement : Alexandra Zaïnal
Conception & Développement : Baudouin d'Aumeries
Co-Programmation & Développement : Marc-Olivier Méhu
Soutien technique & logistique : Manuel Goepfert

Contact : metmap@orbifly.com




SOURCES & CREDITS :

   NOAA